Time;durP1;ratioP1;P1;durP2;ratioP2;P2;SDS_P1;SDS_P2;PMS_P1;PMS_P2;Temp;Humidity;BMP_temperature;BMP_pressure;BME280_temperature;BME280_humidity;BME280_pressure;Samples;Min_cycle;Max_cycle;Signal;HPM_P1;HPM_P2
2021/12/15 00:02:27;;;;;;;39.50;20.17;;;;;;;6.03;100.00;101848.50;5047820;28;20047;-53
2021/12/15 00:04:55;;;;;;;39.70;20.23;;;;;;;6.05;100.00;101846.75;5045708;28;20594;-54
2021/12/15 00:07:25;;;;;;;41.65;21.75;;;;;;;6.07;100.00;101856.38;5031860;28;20041;-53
2021/12/15 00:09:53;;;;;;;38.55;20.05;;;;;;;6.08;100.00;101852.00;5040086;28;20506;-54
2021/12/15 00:12:20;;;;;;;38.72;21.02;;;;;;;6.10;100.00;101847.63;5045695;28;20049;-54
2021/12/15 00:14:47;;;;;;;41.15;21.42;;;;;;;6.12;100.00;101843.22;5038812;28;20045;-53
2021/12/15 00:17:15;;;;;;;38.08;20.73;;;;;;;6.10;100.00;101852.88;5047157;28;20045;-54
2021/12/15 00:19:42;;;;;;;37.95;20.95;;;;;;;6.08;100.00;101855.50;5046002;28;20060;-52
2021/12/15 00:22:09;;;;;;;35.95;20.17;;;;;;;6.06;100.00;101845.88;5042644;28;20051;-52
2021/12/15 00:24:36;;;;;;;39.33;21.13;;;;;;;6.04;100.00;101848.50;5040161;28;20045;-54
2021/12/15 00:27:03;;;;;;;40.78;21.17;;;;;;;6.01;100.00;101855.53;5036047;28;20049;-53
2021/12/15 00:29:30;;;;;;;38.42;20.48;;;;;;;5.98;100.00;101852.03;5049571;28;20081;-52
2021/12/15 00:31:58;;;;;;;38.88;20.48;;;;;;;5.99;100.00;101855.53;5052635;28;20037;-54
2021/12/15 00:34:24;;;;;;;36.63;20.67;;;;;;;6.01;100.00;101856.41;5046975;28;20059;-52
2021/12/15 00:36:51;;;;;;;36.95;20.55;;;;;;;5.99;100.00;101853.78;5047634;28;20045;-54
2021/12/15 00:39:21;;;;;;;39.33;21.23;;;;;;;5.97;100.00;101847.69;5037373;28;20045;-54
2021/12/15 00:41:48;;;;;;;41.90;21.95;;;;;;;5.99;100.00;101847.66;5036196;28;20521;-53
2021/12/15 00:44:15;;;;;;;41.25;22.25;;;;;;;5.97;100.00;101855.56;5041805;28;20051;-53
2021/12/15 00:46:42;;;;;;;40.20;21.92;;;;;;;5.97;100.00;101858.19;5040538;28;20038;-53
2021/12/15 00:49:09;;;;;;;40.78;21.80;;;;;;;6.08;100.00;101857.25;5044541;28;20052;-52
2021/12/15 00:51:38;;;;;;;38.65;20.98;;;;;;;6.08;100.00;101859.91;5037033;28;20057;-52
2021/12/15 00:54:06;;;;;;;39.60;21.40;;;;;;;6.05;100.00;101860.78;5041528;28;20048;-53
2021/12/15 00:56:34;;;;;;;39.00;20.75;;;;;;;6.05;100.00;101866.03;5044799;28;20506;-52
2021/12/15 00:59:06;;;;;;;40.80;20.92;;;;;;;6.07;100.00;101868.66;5042932;28;20048;-53
2021/12/15 01:01:34;;;;;;;37.20;20.90;;;;;;;6.07;100.00;101864.28;5041871;28;20045;-53
2021/12/15 01:04:01;;;;;;;38.97;20.75;;;;;;;6.07;100.00;101864.28;5033220;28;20157;-55
2021/12/15 01:06:29;;;;;;;38.30;22.05;;;;;;;6.10;100.00;101864.28;5039153;28;20056;-53
2021/12/15 01:09:02;;;;;;;40.15;21.38;;;;;;;6.09;100.00;101853.75;5044843;28;20045;-54
2021/12/15 01:12:05;;;;;;;40.40;22.50;;;;;;;6.09;100.00;101859.00;5042920;28;20049;-54
2021/12/15 01:20:25;;;;;;;36.25;21.13;;;;;;;6.15;100.00;101869.47;5018489;28;20045;-54
2021/12/15 01:22:56;;;;;;;40.95;22.73;;;;;;;6.14;100.00;101873.88;5014676;28;20049;-53
2021/12/15 01:25:30;;;;;;;40.17;22.10;;;;;;;6.12;100.00;101873.03;5020463;28;20046;-53
2021/12/15 01:27:57;;;;;;;38.67;21.73;;;;;;;6.10;100.00;101872.16;5023817;28;20049;-52
2021/12/15 01:30:28;;;;;;;38.10;20.95;;;;;;;6.13;100.00;101873.91;5027129;28;20045;-53
2021/12/15 01:32:58;;;;;;;41.28;22.05;;;;;;;6.12;100.00;101872.16;5023161;28;20046;-53
2021/12/15 01:35:25;;;;;;;40.85;22.25;;;;;;;6.10;100.00;101871.28;5020332;28;20719;-53
2021/12/15 01:37:53;;;;;;;42.15;22.30;;;;;;;6.09;100.00;101872.16;5020288;28;20042;-54
2021/12/15 01:40:32;;;;;;;45.88;23.27;;;;;;;6.10;100.00;101866.91;5023227;28;20836;-53
2021/12/15 01:43:02;;;;;;;39.80;22.15;;;;;;;6.09;100.00;101861.66;5021468;28;20041;-53
2021/12/15 01:48:15;;;;;;;46.08;23.52;;;;;;;6.14;100.00;101867.75;5022865;28;20050;-53
2021/12/15 01:50:43;;;;;;;50.20;24.20;;;;;;;6.17;100.00;101868.59;5022126;28;20041;-54
2021/12/15 01:53:10;;;;;;;40.55;22.98;;;;;;;6.26;100.00;101872.94;5026770;28;20038;-54
2021/12/15 01:55:36;;;;;;;40.20;21.95;;;;;;;6.22;100.00;101872.09;5014610;28;20049;-52
2021/12/15 01:58:03;;;;;;;46.75;23.65;;;;;;;6.19;100.00;101876.47;5021145;28;20045;-55
2021/12/15 02:01:04;;;;;;;40.05;21.77;;;;;;;6.19;100.00;101876.47;5021872;28;20451;-52
2021/12/15 02:03:31;;;;;;;47.42;23.98;;;;;;;6.19;100.00;101877.34;4996764;28;20046;-53
2021/12/15 02:05:59;;;;;;;44.92;22.70;;;;;;;6.21;100.00;101879.97;5022224;28;20042;-52
2021/12/15 02:08:26;;;;;;;43.30;22.75;;;;;;;6.22;100.00;101885.25;5017892;28;20048;-54
2021/12/15 02:10:53;;;;;;;45.28;23.00;;;;;;;6.24;100.00;101878.22;5018656;28;20046;-54
2021/12/15 02:13:20;;;;;;;52.20;24.20;;;;;;;6.20;100.00;101875.59;5015768;28;20049;-53
2021/12/15 02:15:50;;;;;;;44.72;23.15;;;;;;;6.22;100.00;101876.47;5018937;28;20492;-54
2021/12/15 02:18:19;;;;;;;43.90;23.50;;;;;;;6.23;100.00;101880.84;5029946;28;20049;-55
2021/12/15 02:20:48;;;;;;;44.50;23.47;;;;;;;6.24;100.00;101880.84;5038024;28;20041;-53
2021/12/15 02:23:18;;;;;;;44.00;22.38;;;;;;;6.25;100.00;101881.72;5040368;28;20045;-54
2021/12/15 02:25:45;;;;;;;42.88;22.92;;;;;;;6.26;100.00;101873.81;5041715;28;20040;-56
2021/12/15 02:28:12;;;;;;;41.72;21.85;;;;;;;6.27;100.00;101882.59;5043808;28;20697;-52
2021/12/15 02:38:50;;;;;;;44.85;22.50;;;;;;;6.19;100.00;101881.75;5046499;28;20049;-53
2021/12/15 02:41:20;;;;;;;46.83;22.30;;;;;;;6.19;100.00;101887.00;5039368;28;20044;-55
2021/12/15 02:43:54;;;;;;;49.70;24.90;;;;;;;6.17;100.00;101883.50;5037476;28;20044;-52
2021/12/15 02:46:21;;;;;;;52.60;26.35;;;;;;;6.15;100.00;101880.88;5044137;28;20063;-52
2021/12/15 02:48:49;;;;;;;47.00;23.67;;;;;;;6.12;100.00;101882.66;5043255;28;20582;-53
2021/12/15 02:51:17;;;;;;;55.20;26.15;;;;;;;6.14;100.00;101887.00;5045675;28;20057;-52
2021/12/15 02:53:44;;;;;;;52.90;26.20;;;;;;;6.13;100.00;101885.31;5045376;28;20037;-51
2021/12/15 02:56:12;;;;;;;50.72;26.38;;;;;;;6.13;100.00;101882.66;5042915;28;20065;-52
2021/12/15 02:58:47;;;;;;;49.80;26.02;;;;;;;6.16;100.00;101887.00;5042171;28;20048;-52
2021/12/15 03:01:22;;;;;;;50.95;26.33;;;;;;;6.18;100.00;101883.50;5044228;28;20045;-53
2021/12/15 03:06:34;;;;;;;47.83;24.73;;;;;;;6.24;100.00;101882.59;5048965;28;20051;-53
2021/12/15 03:09:41;;;;;;;55.13;25.88;;;;;;;6.24;100.00;101875.59;5042850;28;20041;-53
2021/12/15 03:17:26;;;;;;;50.78;25.23;;;;;;;6.27;100.00;101872.94;5049214;28;20060;-54
2021/12/15 03:19:53;;;;;;;47.90;25.45;;;;;;;6.28;100.00;101881.72;5045991;28;20413;-52
2021/12/15 03:22:19;;;;;;;50.22;25.80;;;;;;;6.25;100.00;101877.34;5043040;28;20042;-52
2021/12/15 03:24:47;;;;;;;51.45;24.88;;;;;;;6.24;100.00;101875.59;5043438;28;20049;-52
2021/12/15 03:27:19;;;;;;;52.78;26.85;;;;;;;6.26;100.00;101878.22;5045112;28;20085;-52
2021/12/15 03:35:34;;;;;;;48.67;24.70;;;;;;;6.31;100.00;101877.28;5025488;28;20052;-54
2021/12/15 03:38:01;;;;;;;52.13;25.83;;;;;;;6.33;100.00;101879.91;5030926;28;20045;-52
2021/12/15 03:40:39;;;;;;;50.72;25.25;;;;;;;6.32;100.00;101879.03;5048958;28;20045;-54
2021/12/15 03:43:09;;;;;;;49.20;25.25;;;;;;;6.32;100.00;101883.41;5044661;28;20045;-52
2021/12/15 03:45:44;;;;;;;43.75;23.98;;;;;;;6.34;100.00;101879.03;5045252;28;20044;-54
2021/12/15 03:48:16;;;;;;;44.20;23.27;;;;;;;6.34;100.00;101877.25;5042105;28;20621;-54
2021/12/15 03:50:44;;;;;;;47.33;24.10;;;;;;;6.35;100.00;101872.88;5045566;28;20063;-52
2021/12/15 03:53:12;;;;;;;45.08;23.85;;;;;;;6.35;100.00;101878.13;5048284;28;20051;-54
2021/12/15 03:55:40;;;;;;;43.65;24.13;;;;;;;6.32;100.00;101872.88;5047065;28;20045;-52
2021/12/15 03:58:11;;;;;;;44.80;24.80;;;;;;;6.27;100.00;101875.56;5045816;28;20049;-52
2021/12/15 04:00:44;;;;;;;42.95;23.92;;;;;;;6.29;100.00;101871.19;5049913;28;20052;-54
2021/12/15 04:03:18;;;;;;;43.75;23.55;;;;;;;6.27;100.00;101872.06;5046021;28;20151;-53
2021/12/15 04:05:45;;;;;;;39.20;22.98;;;;;;;6.28;100.00;101869.44;5044082;28;20045;-53
2021/12/15 04:08:12;;;;;;;43.50;23.67;;;;;;;6.29;100.00;101873.81;5044315;28;20050;-54
2021/12/15 04:10:38;;;;;;;41.75;23.30;;;;;;;6.25;100.00;101879.97;5051039;28;20045;-54
2021/12/15 04:13:05;;;;;;;40.78;22.88;;;;;;;6.20;100.00;101867.72;5047574;28;20047;-53
2021/12/15 04:15:42;;;;;;;40.05;24.20;;;;;;;6.26;100.00;101875.59;5048372;28;20037;-53
2021/12/15 04:18:10;;;;;;;37.67;22.15;;;;;;;6.27;100.00;101875.56;5040242;28;20049;-52
2021/12/15 04:20:38;;;;;;;38.38;22.00;;;;;;;6.28;100.00;101874.69;5052662;28;20044;-54
2021/12/15 04:23:08;;;;;;;41.88;22.98;;;;;;;6.28;100.00;101879.97;5037129;28;20057;-53
2021/12/15 04:25:37;;;;;;;40.40;22.10;;;;;;;6.28;100.00;101876.44;5034641;28;20049;-54
2021/12/15 04:28:13;;;;;;;37.33;20.25;;;;;;;6.25;100.00;101879.97;5008297;28;20412;-55
2021/12/15 04:30:48;;;;;;;36.70;22.13;;;;;;;6.23;100.00;101879.09;5034991;28;20049;-53
2021/12/15 04:33:27;;;;;;;38.85;22.33;;;;;;;6.22;100.00;101889.63;5026873;28;20045;-52
2021/12/15 04:35:55;;;;;;;33.20;20.40;;;;;;;6.23;100.00;101888.75;5047941;28;20566;-52
2021/12/15 04:38:25;;;;;;;36.15;21.38;;;;;;;6.18;100.00;101891.38;5046082;28;20056;-52
2021/12/15 04:40:53;;;;;;;33.55;20.70;;;;;;;6.23;100.00;101897.50;5034962;28;20051;-52
2021/12/15 04:43:20;;;;;;;34.75;21.08;;;;;;;6.22;100.00;101889.63;5046571;28;20043;-53
2021/12/15 04:45:47;;;;;;;34.95;21.25;;;;;;;6.18;100.00;101891.38;5046258;28;20391;-53
2021/12/15 04:48:14;;;;;;;36.90;21.98;;;;;;;6.07;100.00;101872.16;5041883;28;20609;-52
2021/12/15 04:50:42;;;;;;;34.63;21.38;;;;;;;6.17;100.00;101889.63;5044153;28;20036;-53
2021/12/15 04:53:09;;;;;;;35.72;22.00;;;;;;;6.13;100.00;101887.94;5046355;28;20041;-56
2021/12/15 04:55:37;;;;;;;36.22;20.70;;;;;;;6.13;100.00;101887.06;5045873;28;20064;-54
2021/12/15 04:58:06;;;;;;;33.60;21.10;;;;;;;6.12;100.00;101894.06;5046474;28;20433;-54
2021/12/15 05:00:35;;;;;;;35.13;21.77;;;;;;;6.12;100.00;101887.94;5039769;28;20045;-52
2021/12/15 05:03:03;;;;;;;32.87;20.67;;;;;;;6.12;100.00;101887.94;5025634;28;20046;-54
2021/12/15 05:05:32;;;;;;;34.40;21.27;;;;;;;6.12;100.00;101899.34;5033281;28;20041;-53
2021/12/15 05:08:00;;;;;;;36.63;22.42;;;;;;;6.10;100.00;101898.47;5042664;28;20052;-58
2021/12/15 05:10:27;;;;;;;36.75;21.63;;;;;;;6.15;100.00;101901.03;5033280;28;20053;-51
2021/12/15 05:12:55;;;;;;;34.22;21.02;;;;;;;6.12;100.00;101904.59;5036106;28;20122;-54
2021/12/15 05:15:21;;;;;;;35.13;20.73;;;;;;;6.13;100.00;101905.47;5022621;28;20048;-52
2021/12/15 05:17:48;;;;;;;34.67;21.23;;;;;;;6.15;100.00;101907.19;5037350;28;20064;-55
2021/12/15 05:20:15;;;;;;;35.88;21.85;;;;;;;6.19;100.00;101903.66;5007934;28;20041;-54
2021/12/15 05:22:41;;;;;;;34.47;21.13;;;;;;;6.19;100.00;101910.69;5003366;28;20046;-52
2021/12/15 05:25:10;;;;;;;36.08;21.63;;;;;;;6.15;100.00;101908.94;4996400;28;20046;-54
2021/12/15 05:27:38;;;;;;;36.45;22.30;;;;;;;6.14;100.00;101907.22;5000046;28;20054;-54
2021/12/15 05:30:11;;;;;;;37.90;22.25;;;;;;;6.13;100.00;101913.34;5005560;28;20049;-54
2021/12/15 05:32:38;;;;;;;35.67;22.05;;;;;;;6.13;100.00;101913.34;5012424;28;20050;-53
2021/12/15 05:35:06;;;;;;;34.80;21.98;;;;;;;6.13;100.00;101914.22;5014542;28;20045;-53
2021/12/15 05:37:33;;;;;;;37.30;22.33;;;;;;;6.13;100.00;101922.13;5006635;28;20042;-54
2021/12/15 05:39:59;;;;;;;37.63;22.35;;;;;;;6.14;100.00;101917.72;5004437;28;20068;-52
2021/12/15 05:42:27;;;;;;;37.13;22.27;;;;;;;6.16;100.00;101926.47;5044696;28;20067;-56
2021/12/15 05:44:56;;;;;;;39.13;21.73;;;;;;;6.18;100.00;101924.69;5043409;28;20051;-52
2021/12/15 05:47:25;;;;;;;35.88;21.15;;;;;;;6.19;100.00;101926.47;5047429;28;20041;-53
2021/12/15 05:49:53;;;;;;;37.35;21.77;;;;;;;6.20;100.00;101930.84;5040646;28;20052;-55
2021/12/15 05:52:20;;;;;;;37.30;21.98;;;;;;;6.11;100.00;101908.09;5047914;28;20052;-54
2021/12/15 05:54:48;;;;;;;36.78;22.52;;;;;;;6.19;100.00;101940.47;5035049;28;20414;-55
2021/12/15 05:57:14;;;;;;;38.38;23.40;;;;;;;6.17;100.00;101934.34;5037637;28;20056;-53
2021/12/15 05:59:41;;;;;;;34.92;22.33;;;;;;;6.20;100.00;101939.59;5035597;28;20046;-54
2021/12/15 06:02:08;;;;;;;41.22;22.63;;;;;;;6.21;100.00;101938.72;5035815;28;20056;-53
2021/12/15 06:04:34;;;;;;;41.47;23.67;;;;;;;6.17;100.00;101944.88;5043209;28;20132;-52
2021/12/15 06:07:02;;;;;;;42.50;23.30;;;;;;;6.17;100.00;101950.13;5045331;28;20044;-54
2021/12/15 06:09:28;;;;;;;37.50;22.70;;;;;;;6.16;100.00;101947.50;5047067;28;20054;-54
2021/12/15 06:11:56;;;;;;;42.35;23.90;;;;;;;6.13;100.00;101944.91;5044850;28;20057;-56
2021/12/15 06:14:24;;;;;;;38.75;22.98;;;;;;;6.16;100.00;101950.13;5046952;28;20045;-55
2021/12/15 06:16:56;;;;;;;38.33;23.27;;;;;;;6.12;100.00;101953.69;5046403;28;20044;-52
2021/12/15 06:19:23;;;;;;;38.67;22.42;;;;;;;6.17;100.00;101951.88;5042727;28;20671;-52
2021/12/15 06:21:49;;;;;;;41.40;23.90;;;;;;;6.16;100.00;101960.66;5036571;28;20045;-54
2021/12/15 06:24:16;;;;;;;38.80;23.20;;;;;;;6.03;100.00;101940.53;5040751;28;20056;-54
2021/12/15 06:26:43;;;;;;;37.85;22.58;;;;;;;6.13;100.00;101956.31;5045584;28;20052;-54
2021/12/15 06:29:09;;;;;;;41.00;23.90;;;;;;;6.13;100.00;101965.94;5045092;28;20048;-53
2021/12/15 06:31:38;;;;;;;40.67;24.65;;;;;;;6.15;100.00;101961.53;5042113;28;20101;-53
2021/12/15 06:34:05;;;;;;;41.55;24.45;;;;;;;6.19;100.00;101966.78;5038969;28;20041;-54
2021/12/15 06:36:33;;;;;;;42.10;24.45;;;;;;;6.21;100.00;101972.03;5041914;28;20052;-53
2021/12/15 06:39:02;;;;;;;41.03;23.40;;;;;;;6.20;100.00;101972.94;5035811;28;20075;-53
2021/12/15 06:41:29;;;;;;;46.22;24.90;;;;;;;6.19;100.00;101971.16;5044071;28;20060;-55
2021/12/15 06:43:57;;;;;;;43.67;24.67;;;;;;;6.20;100.00;101972.94;5041903;28;20060;-56
2021/12/15 06:57:32;;;;;;;49.67;27.75;;;;;;;6.26;100.00;101992.19;5036668;28;20049;-53
2021/12/15 07:00:02;;;;;;;55.50;28.20;;;;;;;6.23;100.00;101996.59;5038790;28;20056;-54
2021/12/15 07:02:29;;;;;;;48.30;27.08;;;;;;;6.24;100.00;101998.34;5030486;28;20080;-53
2021/12/15 07:04:55;;;;;;;50.13;27.23;;;;;;;6.24;100.00;102011.50;5040050;28;20057;-54
2021/12/15 07:07:22;;;;;;;55.33;28.52;;;;;;;6.23;100.00;102010.63;5041591;28;20048;-54
2021/12/15 07:09:49;;;;;;;53.95;28.88;;;;;;;6.24;100.00;102016.75;5040386;28;20053;-53
2021/12/15 07:12:15;;;;;;;55.42;28.77;;;;;;;6.21;100.00;102011.50;5035615;28;20047;-54
2021/12/15 07:14:42;;;;;;;53.85;28.35;;;;;;;6.29;100.00;102015.88;5036718;28;20056;-53
2021/12/15 07:17:15;;;;;;;50.88;29.25;;;;;;;6.33;100.00;102027.25;5045396;28;20056;-54
2021/12/15 07:20:04;;;;;;;55.90;28.50;;;;;;;6.31;100.00;102023.72;5033529;28;20065;-55
2021/12/15 07:22:37;;;;;;;56.13;30.02;;;;;;;6.30;100.00;102019.34;5037527;28;20434;-53
2021/12/15 07:25:05;;;;;;;54.63;27.67;;;;;;;6.27;100.00;102024.66;5040284;28;20052;-56
2021/12/15 07:27:32;;;;;;;57.15;28.25;;;;;;;6.28;100.00;102029.03;5048246;28;20063;-56
2021/12/15 07:29:59;;;;;;;50.67;28.30;;;;;;;6.30;100.00;102029.88;5044911;28;20084;-53
2021/12/15 07:32:26;;;;;;;57.13;30.27;;;;;;;6.35;100.00;102030.75;5042917;28;20052;-53
2021/12/15 07:34:52;;;;;;;50.83;29.20;;;;;;;6.37;100.00;102028.97;5044301;28;20049;-54
2021/12/15 07:37:20;;;;;;;53.00;28.05;;;;;;;6.40;100.00;102033.38;5047714;28;20044;-54
2021/12/15 07:39:55;;;;;;;57.85;29.48;;;;;;;6.42;100.00;102034.25;5042694;28;20051;-54
2021/12/15 07:42:31;;;;;;;55.40;28.98;;;;;;;6.42;100.00;102042.13;5049048;28;20667;-55
2021/12/15 07:44:57;;;;;;;56.25;29.67;;;;;;;6.27;100.00;102027.28;5040391;28;20045;-53
2021/12/15 07:47:24;;;;;;;63.40;31.13;;;;;;;6.31;100.00;102042.16;5042690;28;20056;-54
2021/12/15 07:49:51;;;;;;;55.70;28.77;;;;;;;6.33;100.00;102053.53;5047121;28;20122;-54
2021/12/15 07:52:19;;;;;;;61.90;29.02;;;;;;;6.37;100.00;102054.41;5044162;28;20037;-53
2021/12/15 07:54:45;;;;;;;51.35;27.42;;;;;;;6.40;100.00;102055.28;5047159;28;20045;-54
2021/12/15 07:57:17;;;;;;;56.22;28.17;;;;;;;6.42;100.00;102055.28;5045263;28;20541;-52
2021/12/15 07:59:44;;;;;;;57.17;29.02;;;;;;;6.44;100.00;102046.50;5040281;28;20067;-53
2021/12/15 08:02:11;;;;;;;54.30;27.67;;;;;;;6.53;100.00;102050.84;5040238;28;20053;-54
2021/12/15 08:04:41;;;;;;;46.75;25.25;;;;;;;6.67;100.00;102049.91;5046206;28;20045;-55
2021/12/15 08:07:10;;;;;;;39.53;22.58;;;;;;;6.72;100.00;102051.66;5039425;28;20045;-55
2021/12/15 08:09:36;;;;;;;39.35;23.20;;;;;;;6.73;100.00;102054.28;5042290;28;20051;-52
2021/12/15 08:12:03;;;;;;;39.35;22.77;;;;;;;6.76;100.00;102046.38;5037649;28;20045;-53
2021/12/15 08:14:30;;;;;;;39.97;22.75;;;;;;;6.79;100.00;102045.47;5044958;28;20414;-53
2021/12/15 08:16:57;;;;;;;37.33;21.60;;;;;;;6.81;100.00;102046.34;5040486;28;20538;-52
2021/12/15 08:19:24;;;;;;;40.80;22.10;;;;;;;6.84;100.00;102046.31;5039825;28;20076;-56
2021/12/15 08:21:52;;;;;;;43.70;23.67;;;;;;;6.86;100.00;102049.81;5036742;28;20048;-58
2021/12/15 08:24:19;;;;;;;42.35;22.67;;;;;;;6.88;100.00;102048.06;5041998;28;20502;-53
2021/12/15 08:26:46;;;;;;;43.25;22.55;;;;;;;6.90;99.53;102051.56;5047619;28;20406;-54
2021/12/15 08:29:13;;;;;;;37.78;21.90;;;;;;;6.88;99.57;102053.31;5039867;28;20052;-54
2021/12/15 08:31:39;;;;;;;43.75;22.50;;;;;;;6.90;99.99;102057.72;5040967;28;20053;-55
2021/12/15 08:34:08;;;;;;;41.25;23.83;;;;;;;6.97;99.23;102050.63;5041666;28;20063;-52
2021/12/15 08:36:36;;;;;;;46.03;24.17;;;;;;;6.93;99.04;102052.41;5042971;28;20051;-53
2021/12/15 08:39:04;;;;;;;37.83;23.02;;;;;;;6.92;98.88;102063.84;5031583;28;20132;-52
2021/12/15 08:41:31;;;;;;;40.20;21.98;;;;;;;6.90;99.29;102056.84;5045264;28;20513;-52
2021/12/15 08:43:58;;;;;;;42.15;22.48;;;;;;;6.93;99.44;102062.06;5043029;28;20040;-53
2021/12/15 08:46:28;;;;;;;39.55;22.70;;;;;;;6.89;98.58;102068.25;5040884;28;20040;-52
2021/12/15 08:48:56;;;;;;;40.58;22.75;;;;;;;6.94;98.11;102069.06;5040014;28;20049;-53
2021/12/15 08:51:25;;;;;;;38.90;22.65;;;;;;;6.96;98.21;102067.31;5035930;28;20045;-53
2021/12/15 08:53:58;;;;;;;36.75;20.63;;;;;;;7.02;97.56;102068.16;5038176;28;20045;-53
2021/12/15 08:56:25;;;;;;;36.35;22.17;;;;;;;7.09;97.49;102069.00;5040158;28;20045;-53
2021/12/15 08:58:53;;;;;;;40.10;21.60;;;;;;;7.11;97.61;102071.63;5039663;28;20048;-53
2021/12/15 09:01:20;;;;;;;38.92;22.17;;;;;;;7.12;96.00;102071.59;5017869;28;20048;-53
2021/12/15 09:03:47;;;;;;;37.78;22.05;;;;;;;7.17;95.88;102076.84;5013361;28;20050;-53
2021/12/15 09:06:15;;;;;;;39.58;22.40;;;;;;;7.00;96.00;102069.06;5013890;28;20042;-54
2021/12/15 09:08:42;;;;;;;39.83;22.08;;;;;;;6.98;96.59;102073.44;5019874;28;20620;-53
2021/12/15 09:11:18;;;;;;;41.63;23.02;;;;;;;7.00;96.51;102066.41;5012442;28;20395;-54
2021/12/15 09:13:49;;;;;;;42.17;23.15;;;;;;;7.05;97.10;102072.53;5005108;28;20052;-54
2021/12/15 09:16:16;;;;;;;43.90;24.30;;;;;;;7.15;96.46;102079.50;5035376;28;20483;-55
2021/12/15 09:18:46;;;;;;;40.53;22.67;;;;;;;7.26;95.79;102082.94;5047629;28;20079;-53
2021/12/15 09:21:15;;;;;;;40.53;22.98;;;;;;;7.31;95.29;102075.88;5031213;28;20737;-54
2021/12/15 09:23:44;;;;;;;38.78;23.38;;;;;;;7.34;94.08;102075.00;5043033;28;20052;-53
2021/12/15 09:26:11;;;;;;;39.50;22.52;;;;;;;7.33;94.19;102078.50;5037103;28;20052;-54
2021/12/15 09:28:38;;;;;;;38.67;21.73;;;;;;;7.35;94.61;102080.25;5023927;28;20037;-54
2021/12/15 09:31:07;;;;;;;37.10;22.40;;;;;;;7.40;94.36;102080.19;5017084;28;20057;-54
2021/12/15 09:33:34;;;;;;;38.50;21.98;;;;;;;7.41;94.66;102084.59;5041150;28;20040;-52
2021/12/15 09:36:02;;;;;;;41.55;23.15;;;;;;;7.46;94.26;102079.28;5026774;28;20072;-53
2021/12/15 09:38:30;;;;;;;42.58;24.55;;;;;;;7.53;94.57;102084.53;5030551;28;20045;-55
2021/12/15 09:40:59;;;;;;;42.70;24.27;;;;;;;7.61;93.97;102089.72;5018379;28;20048;-53
2021/12/15 09:43:28;;;;;;;45.42;24.42;;;;;;;7.67;93.42;102085.28;5044212;28;20053;-53
2021/12/15 09:46:29;;;;;;;43.15;24.40;;;;;;;7.70;93.67;102080.00;5043457;28;20541;-54
2021/12/15 09:57:16;;;;;;;44.58;26.90;;;;;;;7.86;91.90;102096.56;5042805;28;20049;-54
2021/12/15 10:03:29;;;;;;;47.65;26.33;;;;;;;7.86;92.43;102095.69;5042586;28;20055;-54
2021/12/15 10:19:28;;;;;;;41.67;24.88;;;;;;;8.25;89.75;102078.59;5034470;28;20052;-53
2021/12/15 10:22:27;;;;;;;43.13;24.60;;;;;;;8.23;89.29;102075.94;5032686;28;20053;-53
2021/12/15 10:25:01;;;;;;;39.53;23.45;;;;;;;8.27;88.72;102082.97;5039015;28;20474;-53
2021/12/15 10:27:52;;;;;;;41.22;24.05;;;;;;;8.28;88.59;102087.34;5048889;28;20498;-54
2021/12/15 10:30:30;;;;;;;;;;;;;;;8.27;88.87;102082.09;5037049;28;20048;-55
2021/12/15 10:33:28;;;;;;;43.13;24.58;;;;;;;8.30;88.62;102082.94;5039565;28;19921;-54
2021/12/15 10:35:58;;;;;;;41.13;24.73;;;;;;;8.35;88.18;102080.25;5006222;28;20041;-56
2021/12/15 10:38:38;;;;;;;40.78;24.77;;;;;;;8.41;87.52;102081.06;5038757;28;20477;-53
2021/12/15 10:41:07;;;;;;;43.50;24.85;;;;;;;8.51;87.37;102084.47;5040565;28;20048;-53
2021/12/15 10:43:47;;;;;;;40.83;23.15;;;;;;;8.55;87.14;102080.03;5032286;28;20256;-52
2021/12/15 10:46:16;;;;;;;40.33;23.85;;;;;;;8.50;87.80;102073.94;5037394;28;20051;-52
2021/12/15 10:48:57;;;;;;;38.38;22.95;;;;;;;8.53;87.82;102074.78;5048475;28;20045;-52
2021/12/15 10:51:47;;;;;;;38.35;24.02;;;;;;;8.60;87.94;102065.03;5030012;28;20478;-55
2021/12/15 10:54:29;;;;;;;38.33;22.98;;;;;;;8.61;86.59;102066.78;5039298;28;20508;-53
2021/12/15 10:57:08;;;;;;;41.65;23.40;;;;;;;8.59;86.61;102068.56;5045415;28;20036;-53
2021/12/15 10:59:42;;;;;;;36.25;21.95;;;;;;;8.62;86.47;102064.13;5035516;28;20545;-53
2021/12/15 11:02:32;;;;;;;38.33;22.98;;;;;;;8.66;86.10;102064.94;5038728;28;20041;-54
2021/12/15 11:05:12;;;;;;;36.70;22.40;;;;;;;8.59;85.94;102072.06;5039860;28;20074;-52
2021/12/15 11:10:31;;;;;;;33.50;20.67;;;;;;;8.37;84.85;102039.75;4984883;28;20559;-86
2021/12/15 11:12:58;;;;;;;31.17;19.55;;;;;;;8.61;85.06;102074.69;4990871;28;20043;-88
2021/12/15 11:15:28;;;;;;;32.20;19.63;;;;;;;8.58;84.50;102067.69;4992575;28;20092;-86
2021/12/15 11:18:05;;;;;;;32.17;19.17;;;;;;;8.46;83.88;102024.72;4991046;28;21437;-85
2021/12/15 11:20:36;;;;;;;31.73;18.73;;;;;;;8.68;83.58;102068.41;4990012;28;20074;-86
2021/12/15 11:23:13;;;;;;;31.67;19.83;;;;;;;8.67;83.86;102062.25;5006308;23;20137;-90
2021/12/15 11:25:42;;;;;;;31.48;19.38;;;;;;;8.72;84.18;102054.28;4988533;28;20090;-90
2021/12/15 11:28:13;;;;;;;31.70;19.33;;;;;;;8.75;84.34;102060.41;4997825;28;20577;-90
2021/12/15 11:30:57;;;;;;;30.55;18.73;;;;;;;8.66;84.03;102030.59;4997587;28;20038;-91
2021/12/15 11:33:41;;;;;;;31.40;18.05;;;;;;;8.68;83.64;102011.19;4992731;28;20097;-91
2021/12/15 11:36:12;;;;;;;32.67;18.55;;;;;;;8.59;82.47;101978.78;4993923;28;20047;-91
2021/12/15 11:38:44;;;;;;;31.33;18.58;;;;;;;8.79;82.32;102019.00;4995887;28;20078;-91
2021/12/15 11:41:34;;;;;;;30.88;19.15;;;;;;;9.03;81.75;102052.09;5003089;28;20050;-91
2021/12/15 11:44:05;;;;;;;29.83;18.67;;;;;;;9.16;82.03;102045.75;4994048;28;20058;-90
2021/12/15 11:46:42;;;;;;;27.00;18.35;;;;;;;9.09;81.69;102015.03;4998422;28;20042;-91
2021/12/15 11:49:19;;;;;;;34.25;19.70;;;;;;;9.42;81.18;102033.03;4995686;28;20050;-92
2021/12/15 11:52:12;;;;;;;30.83;18.02;;;;;;;9.23;80.59;101997.19;4993039;28;20468;-91
2021/12/15 11:54:47;;;;;;;30.65;18.55;;;;;;;9.27;79.84;101990.09;4987079;28;20097;-91
2021/12/15 11:57:21;;;;;;;31.13;18.63;;;;;;;9.54;80.01;102031.94;5000403;28;20053;-90
2021/12/15 12:00:05;;;;;;;34.03;19.38;;;;;;;9.17;79.70;101999.03;5017701;28;20034;-91
2021/12/15 12:02:34;;;;;;;32.88;19.38;;;;;;;8.75;81.20;101973.25;4998412;28;20058;-89
2021/12/15 12:05:19;;;;;;;37.13;20.40;;;;;;;8.95;82.43;102009.09;4994940;28;20061;-90
2021/12/15 12:07:49;;;;;;;31.20;18.90;;;;;;;8.83;82.30;101978.41;4996104;28;20067;-90
2021/12/15 12:10:21;;;;;;;27.98;16.92;;;;;;;9.20;80.83;102025.44;4994513;28;20053;-89
2021/12/15 12:13:03;;;;;;;28.15;16.75;;;;;;;8.95;80.81;101975.63;4997675;28;20046;-90
2021/12/15 12:15:31;;;;;;;24.38;15.25;;;;;;;9.02;80.20;101981.66;4978649;28;20258;-90
2021/12/15 12:18:04;;;;;;;23.92;16.55;;;;;;;9.12;79.58;101983.28;4993823;28;20073;-90
2021/12/15 12:20:36;;;;;;;28.45;16.77;;;;;;;9.38;79.49;102022.50;4994864;28;20109;-89
2021/12/15 12:23:05;;;;;;;26.70;15.90;;;;;;;9.24;79.76;101998.94;4985937;28;20113;-91
2021/12/15 12:25:37;;;;;;;24.02;15.57;;;;;;;9.06;78.94;101965.75;4988834;28;20026;-92
2021/12/15 12:28:09;;;;;;;25.95;16.67;;;;;;;9.30;79.77;102027.91;4987611;28;20046;-91
2021/12/15 12:30:40;;;;;;;25.27;16.05;;;;;;;9.12;79.88;102004.44;4990667;28;20051;-90
2021/12/15 12:33:09;;;;;;;;;;;;;;;9.32;79.65;102015.53;4991084;28;20046;-91
2021/12/15 12:35:50;;;;;;;21.67;14.43;;;;;;;9.29;79.57;101999.72;4991062;28;19963;-90
2021/12/15 12:38:23;;;;;;;23.42;14.85;;;;;;;9.45;78.85;102019.72;5002012;28;20042;-90